createdAt,value
2022-08-23T00:00:47.550Z,0.00
2022-08-23T00:01:45.562Z,0.00
2022-08-23T00:02:45.636Z,0.00
2022-08-23T00:03:45.523Z,0.00
2022-08-23T00:04:55.818Z,0.00
2022-08-23T00:05:46.492Z,0.00
2022-08-23T00:06:45.518Z,0.00
2022-08-23T00:07:45.501Z,0.00
2022-08-23T00:08:48.749Z,0.00
2022-08-23T00:09:45.458Z,0.00
2022-08-23T00:10:46.450Z,0.00
2022-08-23T00:11:45.507Z,0.00
2022-08-23T00:12:45.444Z,0.00
2022-08-23T00:13:47.486Z,0.00
2022-08-23T00:14:45.513Z,0.00
2022-08-23T00:15:45.415Z,0.00
2022-08-23T00:16:45.439Z,0.00
2022-08-23T00:17:45.402Z,0.00
2022-08-23T00:18:48.981Z,0.00
2022-08-23T00:19:45.381Z,0.00
2022-08-23T00:20:45.380Z,0.00
2022-08-23T00:21:45.390Z,0.00
2022-08-23T00:22:45.359Z,0.00
2022-08-23T00:23:45.346Z,0.00
2022-08-23T00:24:45.336Z,0.00
2022-08-23T00:25:45.338Z,0.00
2022-08-23T00:26:45.355Z,0.00
2022-08-23T00:27:45.309Z,0.00
2022-08-23T00:28:45.299Z,0.00
2022-08-23T00:29:45.294Z,0.00
2022-08-23T00:30:45.278Z,0.00
2022-08-23T00:31:45.308Z,0.00
2022-08-23T00:32:45.274Z,0.00
2022-08-23T00:33:45.258Z,0.00
2022-08-23T00:34:45.244Z,0.00
2022-08-23T00:35:45.236Z,0.00
2022-08-23T00:36:45.264Z,0.00
2022-08-23T00:37:45.219Z,0.00
2022-08-23T00:38:46.212Z,0.00
2022-08-23T00:39:45.236Z,0.00
2022-08-23T00:40:45.219Z,0.00
2022-08-23T00:41:45.192Z,0.00
2022-08-23T00:42:45.222Z,0.00
2022-08-23T00:43:45.193Z,0.00
2022-08-23T00:44:45.174Z,0.00
2022-08-23T00:45:45.159Z,0.00
2022-08-23T00:46:45.160Z,0.00
2022-08-23T00:47:45.182Z,0.00
2022-08-23T00:48:45.137Z,0.00
2022-08-23T00:49:45.130Z,0.00
2022-08-23T00:50:45.121Z,0.00
2022-08-23T00:51:52.548Z,0.00
2022-08-23T00:52:46.127Z,0.00
2022-08-23T00:53:45.094Z,0.00
2022-08-23T00:54:45.088Z,0.00
2022-08-23T00:55:45.076Z,0.00
2022-08-23T00:56:45.069Z,0.00
2022-08-23T00:57:45.095Z,0.00
2022-08-23T00:58:45.051Z,0.00
2022-08-23T00:59:45.056Z,0.00
2022-08-23T01:01:07.881Z,0.00
2022-08-23T01:01:46.088Z,0.00
2022-08-23T01:02:45.052Z,0.00
2022-08-23T01:03:45.024Z,0.00
2022-08-23T01:04:45.002Z,0.00
2022-08-23T01:05:45.010Z,0.00
2022-08-23T01:06:44.983Z,0.00
2022-08-23T01:07:45.006Z,0.00
2022-08-23T01:08:44.968Z,0.00
2022-08-23T01:09:44.964Z,0.00
2022-08-23T01:10:44.952Z,0.00
2022-08-23T01:11:44.939Z,0.00
2022-08-23T01:12:44.965Z,0.00
2022-08-23T01:13:44.934Z,0.00
2022-08-23T01:14:44.914Z,0.00
2022-08-23T01:15:44.907Z,0.00
2022-08-23T01:16:44.906Z,0.00
2022-08-23T01:17:44.922Z,0.00
2022-08-23T01:18:44.881Z,0.00
2022-08-23T01:19:44.874Z,0.00
2022-08-23T01:20:44.874Z,0.00
2022-08-23T01:21:44.854Z,0.00
2022-08-23T01:22:44.880Z,0.00
2022-08-23T01:23:44.837Z,0.00
2022-08-23T01:24:59.609Z,0.00
2022-08-23T01:25:45.830Z,0.00
2022-08-23T01:26:44.824Z,0.00
2022-08-23T01:27:44.844Z,0.00
2022-08-23T01:28:45.829Z,0.00
2022-08-23T01:29:44.789Z,0.00
2022-08-23T01:30:44.786Z,0.00
2022-08-23T01:31:44.779Z,0.00
2022-08-23T01:32:44.805Z,0.00
2022-08-23T01:33:44.759Z,0.00
2022-08-23T01:34:51.663Z,0.00
2022-08-23T01:35:45.748Z,0.00
2022-08-23T01:36:44.736Z,0.00
2022-08-23T01:37:44.755Z,0.00
2022-08-23T01:38:44.715Z,0.00
2022-08-23T01:39:44.729Z,0.00
2022-08-23T01:40:45.706Z,0.00
2022-08-23T01:41:44.700Z,0.00
2022-08-23T01:42:44.710Z,0.00
2022-08-23T01:43:44.672Z,0.00
2022-08-23T01:44:44.683Z,0.00
2022-08-23T01:45:44.658Z,0.00
2022-08-23T01:46:44.653Z,0.00
2022-08-23T01:47:44.669Z,0.00
2022-08-23T01:48:44.634Z,0.00
2022-08-23T01:49:44.623Z,0.00
2022-08-23T01:50:44.618Z,0.00
2022-08-23T01:51:44.609Z,0.00
2022-08-23T01:52:46.751Z,0.00
2022-08-23T01:53:44.593Z,0.00
2022-08-23T01:54:44.598Z,0.00
2022-08-23T01:55:44.601Z,0.00
2022-08-23T01:56:44.575Z,0.00
2022-08-23T01:57:45.498Z,0.00
2022-08-23T01:58:44.587Z,0.00
2022-08-23T01:59:44.538Z,0.00
2022-08-23T02:00:44.554Z,0.00
2022-08-23T02:01:44.573Z,0.00
2022-08-23T02:02:44.514Z,0.00
2022-08-23T02:03:44.533Z,0.00
2022-08-23T02:04:44.494Z,0.00
2022-08-23T02:05:44.533Z,0.00
2022-08-23T02:06:44.476Z,0.00
2022-08-23T02:07:44.470Z,0.00
2022-08-23T02:08:44.492Z,0.00
2022-08-23T02:09:44.454Z,0.00
2022-08-23T02:10:44.448Z,0.00
2022-08-23T02:11:44.446Z,0.00
2022-08-23T02:12:44.431Z,0.00
2022-08-23T02:13:44.451Z,0.00
2022-08-23T02:14:44.418Z,0.00
2022-08-23T02:15:44.407Z,0.00
2022-08-23T02:16:56.528Z,0.00
2022-08-23T02:17:45.383Z,0.00
2022-08-23T02:18:44.435Z,0.00
2022-08-23T02:19:44.389Z,0.00
2022-08-23T02:20:44.363Z,0.00
2022-08-23T02:21:44.381Z,0.00
2022-08-23T02:22:44.349Z,0.00
2022-08-23T02:23:44.361Z,0.00
2022-08-23T02:24:44.329Z,0.00
2022-08-23T02:25:44.337Z,0.00
2022-08-23T02:26:46.418Z,0.00
2022-08-23T02:27:44.413Z,0.00
2022-08-23T02:28:44.333Z,0.00
2022-08-23T02:29:44.286Z,0.00
2022-08-23T02:30:44.294Z,0.00
2022-08-23T02:31:44.275Z,0.00
2022-08-23T02:32:44.252Z,0.00
2022-08-23T02:34:38.698Z,0.00
2022-08-23T02:34:44.290Z,0.00
2022-08-23T02:35:45.297Z,0.00
2022-08-23T02:36:44.322Z,0.00
2022-08-23T02:37:44.265Z,0.00
2022-08-23T02:38:44.293Z,0.00
2022-08-23T02:39:44.338Z,0.00
2022-08-23T02:40:44.257Z,0.00
2022-08-23T02:41:44.246Z,0.00
2022-08-23T02:42:44.224Z,0.00
2022-08-23T02:43:44.242Z,0.00
2022-08-23T02:44:44.206Z,0.00
2022-08-23T02:45:44.197Z,0.00
2022-08-23T02:46:44.191Z,0.00
2022-08-23T02:47:44.195Z,0.00
2022-08-23T02:48:44.226Z,0.00
2022-08-23T02:49:44.170Z,0.00
2022-08-23T02:50:44.153Z,0.00
2022-08-23T02:51:44.144Z,0.00
2022-08-23T02:52:44.130Z,0.00
2022-08-23T02:53:44.160Z,0.00
2022-08-23T02:54:44.123Z,0.00
2022-08-23T02:55:44.117Z,0.00
2022-08-23T02:56:44.108Z,0.00
2022-08-23T02:57:44.110Z,0.00
2022-08-23T02:58:44.117Z,0.00
2022-08-23T02:59:44.074Z,0.00
2022-08-23T03:00:44.069Z,0.00
2022-08-23T03:01:44.056Z,0.00
2022-08-23T03:02:44.098Z,0.00
2022-08-23T03:03:45.074Z,0.00
2022-08-23T03:04:44.043Z,0.00
2022-08-23T03:05:44.031Z,0.00
2022-08-23T03:06:44.028Z,0.00
2022-08-23T03:07:44.006Z,0.00
2022-08-23T03:08:44.042Z,0.00
2022-08-23T03:09:44.001Z,0.00
2022-08-23T03:10:43.987Z,0.00
2022-08-23T03:11:43.983Z,0.00
2022-08-23T03:12:43.976Z,0.00
2022-08-23T03:13:44.001Z,0.00
2022-08-23T03:14:43.953Z,0.00
2022-08-23T03:15:43.942Z,0.00
2022-08-23T03:16:43.933Z,0.00
2022-08-23T03:17:43.926Z,0.00
2022-08-23T03:18:43.963Z,0.00
2022-08-23T03:19:43.919Z,0.00
2022-08-23T03:20:43.907Z,0.00
2022-08-23T03:21:43.903Z,0.00
2022-08-23T03:22:48.442Z,0.00
2022-08-23T03:23:44.901Z,0.00
2022-08-23T03:24:43.868Z,0.00
2022-08-23T03:25:43.862Z,0.00
2022-08-23T03:26:43.856Z,0.00
2022-08-23T03:27:44.651Z,0.00
2022-08-23T03:28:43.882Z,0.00
2022-08-23T03:29:43.821Z,0.00
2022-08-23T03:30:44.801Z,0.00
2022-08-23T03:31:43.769Z,0.00
2022-08-23T03:32:49.085Z,0.00
2022-08-23T03:33:44.771Z,0.00
2022-08-23T03:34:43.729Z,0.00
2022-08-23T03:35:44.724Z,0.00
2022-08-23T03:36:43.715Z,0.00
2022-08-23T03:37:43.708Z,0.00
2022-08-23T03:38:43.700Z,0.00
2022-08-23T03:39:43.771Z,0.00
2022-08-23T03:40:43.680Z,0.00
2022-08-23T03:41:43.680Z,0.00
2022-08-23T03:42:43.668Z,0.00
2022-08-23T03:43:43.659Z,0.00
2022-08-23T03:44:43.680Z,0.00
2022-08-23T03:45:43.639Z,0.00
2022-08-23T03:46:43.636Z,0.00
2022-08-23T03:47:43.628Z,0.00
2022-08-23T03:48:43.622Z,4.00
2022-08-23T03:49:43.632Z,4.00
2022-08-23T03:50:43.597Z,4.00
2022-08-23T03:51:43.589Z,0.00
2022-08-23T03:52:43.579Z,4.00
2022-08-23T03:53:43.564Z,4.00
2022-08-23T03:54:43.603Z,4.00
2022-08-23T03:55:43.555Z,8.00
2022-08-23T03:56:43.554Z,4.00
2022-08-23T03:57:43.533Z,8.00
2022-08-23T03:58:43.539Z,8.00
2022-08-23T03:59:43.552Z,12.00
2022-08-23T04:00:43.506Z,12.00
2022-08-23T04:01:43.549Z,16.00
2022-08-23T04:02:43.505Z,16.00
2022-08-23T04:03:43.494Z,16.00
2022-08-23T04:04:43.514Z,20.00
2022-08-23T04:05:43.473Z,24.00
2022-08-23T04:06:43.464Z,28.00
2022-08-23T04:07:43.450Z,32.00
2022-08-23T04:08:44.448Z,36.00
2022-08-23T04:09:43.467Z,40.00
2022-08-23T04:10:43.425Z,48.00
2022-08-23T04:11:43.431Z,56.00
2022-08-23T04:12:43.412Z,60.00
2022-08-23T04:13:43.417Z,72.00
2022-08-23T04:14:43.433Z,76.00
2022-08-23T04:15:43.572Z,88.00
2022-08-23T04:16:44.392Z,96.00
2022-08-23T04:17:43.368Z,108.00
2022-08-23T04:18:43.417Z,120.00
2022-08-23T04:19:43.381Z,132.00
2022-08-23T04:20:43.342Z,148.00
2022-08-23T04:21:43.330Z,164.00
2022-08-23T04:22:43.335Z,180.00
2022-08-23T04:23:43.322Z,204.00
2022-08-23T04:24:43.339Z,232.00
2022-08-23T04:25:43.303Z,264.00
2022-08-23T04:26:43.516Z,296.00
2022-08-23T04:27:43.286Z,328.00
2022-08-23T04:28:43.270Z,364.00
2022-08-23T04:29:43.290Z,396.00
2022-08-23T04:30:44.255Z,440.00
2022-08-23T04:31:43.255Z,496.00
2022-08-23T04:32:43.241Z,564.00
2022-08-23T04:33:43.239Z,628.00
2022-08-23T04:34:45.665Z,696.00
2022-08-23T04:35:44.222Z,768.00
2022-08-23T04:36:50.050Z,852.00
2022-08-23T04:37:44.206Z,932.00
2022-08-23T04:38:43.188Z,1016.00
2022-08-23T04:39:43.388Z,1100.00
2022-08-23T04:40:44.169Z,1184.00
2022-08-23T04:41:43.167Z,1268.00
2022-08-23T04:42:43.164Z,1364.00
2022-08-23T04:43:43.148Z,1460.00
2022-08-23T04:44:43.171Z,1564.00
2022-08-23T04:45:43.140Z,1680.00
2022-08-23T04:46:43.124Z,1804.00
2022-08-23T04:47:43.123Z,1920.00
2022-08-23T04:48:43.106Z,2032.00
2022-08-23T04:49:43.128Z,2152.00
2022-08-23T04:50:43.090Z,2280.00
2022-08-23T04:51:43.079Z,2448.00
2022-08-23T04:52:44.081Z,2596.00
2022-08-23T04:53:43.065Z,2720.00
2022-08-23T04:54:43.078Z,2844.00
2022-08-23T04:55:43.054Z,2976.00
2022-08-23T04:56:43.035Z,3108.00
2022-08-23T04:57:43.026Z,3244.00
2022-08-23T04:58:43.025Z,3392.00
2022-08-23T04:59:43.049Z,3540.00
2022-08-23T05:00:43.047Z,3684.00
2022-08-23T05:01:43.017Z,3828.00
2022-08-23T05:02:43.388Z,3964.00
2022-08-23T05:03:42.975Z,4100.00
2022-08-23T05:04:43.014Z,4232.00
2022-08-23T05:05:42.975Z,4352.00
2022-08-23T05:06:42.951Z,4484.00
2022-08-23T05:07:43.245Z,4620.00
2022-08-23T05:08:43.951Z,4752.00
2022-08-23T05:09:42.933Z,4896.00
2022-08-23T05:10:42.954Z,5052.00
2022-08-23T05:11:42.921Z,5188.00
2022-08-23T05:12:42.905Z,5308.00
2022-08-23T05:13:42.896Z,5420.00
2022-08-23T05:14:44.338Z,5492.00
2022-08-23T05:15:43.906Z,5568.00
2022-08-23T05:16:42.869Z,5648.00
2022-08-23T05:17:42.862Z,5760.00
2022-08-23T05:18:42.858Z,5868.00
2022-08-23T05:19:44.327Z,5924.00
2022-08-23T05:20:42.874Z,5988.00
2022-08-23T05:21:42.836Z,6108.00
2022-08-23T05:22:42.827Z,6228.00
2022-08-23T05:23:42.812Z,6336.00
2022-08-23T05:24:42.816Z,6444.00
2022-08-23T05:25:42.839Z,6548.00
2022-08-23T05:26:42.804Z,6664.00
2022-08-23T05:27:42.801Z,6784.00
2022-08-23T05:28:42.778Z,6888.00
2022-08-23T05:29:42.765Z,6976.00
2022-08-23T05:30:42.788Z,7092.00
2022-08-23T05:31:43.763Z,7212.00
2022-08-23T05:32:42.735Z,7348.00
2022-08-23T05:33:42.732Z,7504.00
2022-08-23T05:34:42.722Z,7648.00
2022-08-23T05:35:42.737Z,7800.00
2022-08-23T05:36:48.303Z,7968.00
2022-08-23T05:37:43.698Z,8096.00
2022-08-23T05:38:42.691Z,8192.00
2022-08-23T05:39:42.711Z,8236.00
2022-08-23T05:40:42.712Z,8252.00
2022-08-23T05:41:42.669Z,8304.00
2022-08-23T05:42:42.661Z,8332.00
2022-08-23T05:43:42.647Z,8352.00
2022-08-23T05:44:42.636Z,8428.00
2022-08-23T05:45:42.660Z,8468.00
2022-08-23T05:46:42.922Z,8652.00
2022-08-23T05:47:42.620Z,8856.00
2022-08-23T05:48:42.611Z,9020.00
2022-08-23T05:49:42.599Z,9184.00
2022-08-23T05:50:42.625Z,9336.00
2022-08-23T05:51:42.588Z,9440.00
2022-08-23T05:52:42.577Z,9052.00
2022-08-23T05:53:42.565Z,9460.00
2022-08-23T05:54:42.560Z,9572.00
2022-08-23T05:55:42.585Z,9176.00
2022-08-23T05:56:42.551Z,8084.00
2022-08-23T05:57:42.532Z,6912.00
2022-08-23T05:58:42.526Z,6232.00
2022-08-23T05:59:42.516Z,6232.00
2022-08-23T06:00:42.590Z,6284.00
2022-08-23T06:01:42.510Z,6360.00
2022-08-23T06:02:42.491Z,6436.00
2022-08-23T06:03:42.531Z,6504.00
2022-08-23T06:04:42.475Z,6552.00
2022-08-23T06:05:42.487Z,6604.00
2022-08-23T06:06:42.451Z,6632.00
2022-08-23T06:07:42.447Z,6636.00
2022-08-23T06:08:46.347Z,6600.00
2022-08-23T06:09:42.428Z,6520.00
2022-08-23T06:10:42.642Z,6460.00
2022-08-23T06:11:43.409Z,6440.00
2022-08-23T06:12:42.396Z,6436.00
2022-08-23T06:13:43.437Z,6456.00
2022-08-23T06:14:42.392Z,6496.00
2022-08-23T06:15:42.403Z,6532.00
2022-08-23T06:16:42.368Z,6584.00
2022-08-23T06:17:42.367Z,6664.00
2022-08-23T06:18:42.351Z,6748.00
2022-08-23T06:19:42.337Z,6820.00
2022-08-23T06:20:42.458Z,6888.00
2022-08-23T06:21:42.329Z,7032.00
2022-08-23T06:22:42.338Z,7476.00
2022-08-23T06:23:42.307Z,7336.00
2022-08-23T06:24:42.307Z,7600.00
2022-08-23T06:25:43.155Z,7972.00
2022-08-23T06:26:42.284Z,11352.00
2022-08-23T06:27:42.288Z,12608.00
2022-08-23T06:28:51.132Z,14380.00
2022-08-23T06:29:43.258Z,13944.00
2022-08-23T06:30:42.363Z,16000.00
2022-08-23T06:31:42.242Z,16928.00
2022-08-23T06:32:42.297Z,14612.00
2022-08-23T06:33:42.297Z,17376.00
2022-08-23T06:34:43.213Z,17312.00
2022-08-23T06:35:42.240Z,18240.00
2022-08-23T06:36:42.198Z,18464.00
2022-08-23T06:37:42.198Z,19136.00
2022-08-23T06:38:42.177Z,19328.00
2022-08-23T06:39:42.251Z,19776.00
2022-08-23T06:40:42.173Z,19808.00
2022-08-23T06:41:42.187Z,19904.00
2022-08-23T06:42:42.148Z,20160.00
2022-08-23T06:43:42.145Z,20512.00
2022-08-23T06:44:42.145Z,20928.00
2022-08-23T06:45:42.151Z,21408.00
2022-08-23T06:46:43.155Z,21952.00
2022-08-23T06:47:42.109Z,22336.00
2022-08-23T06:48:42.102Z,22592.00
2022-08-23T06:49:42.099Z,22784.00
2022-08-23T06:50:43.110Z,23040.00
2022-08-23T06:51:42.085Z,23328.00
2022-08-23T06:52:42.068Z,23840.00
2022-08-23T06:53:42.062Z,24736.00
2022-08-23T06:54:42.047Z,25920.00
2022-08-23T06:55:42.098Z,27104.00
2022-08-23T06:56:42.033Z,27328.00
2022-08-23T06:57:42.023Z,27712.00
2022-08-23T06:58:42.020Z,30016.00
2022-08-23T06:59:42.009Z,32544.00
2022-08-23T07:00:42.082Z,34656.00
2022-08-23T07:01:46.579Z,39296.00
2022-08-23T07:02:44.013Z,45120.00
2022-08-23T07:03:43.019Z,52224.00
2022-08-23T07:04:41.975Z,57984.00
2022-08-23T07:05:42.027Z,68864.00
2022-08-23T07:06:41.989Z,92832.00
2022-08-23T07:07:44.295Z,100960.00
2022-08-23T07:08:41.949Z,79296.00
2022-08-23T07:09:41.952Z,61504.00
2022-08-23T07:10:41.975Z,56672.00
2022-08-23T07:11:41.959Z,58112.00
2022-08-23T07:12:41.935Z,56448.00
2022-08-23T07:13:48.414Z,51520.00
2022-08-23T07:14:41.898Z,47744.00
2022-08-23T07:15:41.898Z,46688.00
2022-08-23T07:16:41.914Z,44256.00
2022-08-23T07:17:41.877Z,40160.00
2022-08-23T07:18:41.875Z,38784.00
2022-08-23T07:19:41.863Z,38752.00
2022-08-23T07:20:41.862Z,38304.00
2022-08-23T07:21:41.880Z,37856.00
2022-08-23T07:22:41.841Z,38112.00
2022-08-23T07:23:44.866Z,35680.00
2022-08-23T07:24:42.832Z,35872.00
2022-08-23T07:25:41.813Z,35808.00
2022-08-23T07:26:41.837Z,35744.00
2022-08-23T07:27:41.803Z,35872.00
2022-08-23T07:28:41.790Z,36128.00
2022-08-23T07:29:41.780Z,37184.00
2022-08-23T07:30:45.117Z,36416.00
2022-08-23T07:31:42.843Z,34272.00
2022-08-23T07:32:41.759Z,35168.00
2022-08-23T07:33:41.756Z,35872.00
2022-08-23T07:34:41.747Z,35648.00
2022-08-23T07:35:41.738Z,36000.00
2022-08-23T07:36:41.771Z,37728.00
2022-08-23T07:37:41.723Z,39488.00
2022-08-23T07:38:42.754Z,38432.00
2022-08-23T07:39:41.726Z,38016.00
2022-08-23T07:40:41.762Z,38624.00
2022-08-23T07:41:41.730Z,38784.00
2022-08-23T07:42:41.678Z,39584.00
2022-08-23T07:43:41.670Z,40384.00
2022-08-23T07:44:41.685Z,40416.00
2022-08-23T07:45:41.658Z,41376.00
2022-08-23T07:46:41.763Z,42496.00
2022-08-23T07:47:45.428Z,41888.00
2022-08-23T07:48:53.897Z,40320.00
2022-08-23T07:49:43.632Z,39232.00
2022-08-23T07:50:54.741Z,39520.00
2022-08-23T07:51:42.639Z,40512.00
2022-08-23T07:52:41.616Z,41728.00
2022-08-23T07:53:44.210Z,43296.00
2022-08-23T07:54:48.275Z,44768.00
2022-08-23T07:55:42.588Z,43648.00
2022-08-23T07:56:41.608Z,41984.00
2022-08-23T07:57:41.571Z,43616.00
2022-08-23T07:58:41.563Z,47840.00
2022-08-23T07:59:41.560Z,52032.00
2022-08-23T08:00:41.561Z,52320.00
2022-08-23T08:01:41.612Z,47744.00
2022-08-23T08:02:41.599Z,42176.00
2022-08-23T08:03:41.537Z,38240.00
2022-08-23T08:04:41.520Z,37312.00
2022-08-23T08:05:41.517Z,36704.00
2022-08-23T08:06:41.559Z,36352.00
2022-08-23T08:07:41.520Z,35712.00
2022-08-23T08:08:41.502Z,35264.00
2022-08-23T08:09:41.495Z,35424.00
2022-08-23T08:10:41.482Z,36320.00
2022-08-23T08:11:41.509Z,41792.00
2022-08-23T08:12:41.488Z,58240.00
2022-08-23T08:13:41.484Z,72128.00
2022-08-23T08:14:41.474Z,74336.00
2022-08-23T08:15:41.480Z,76288.00
2022-08-23T08:16:41.439Z,78240.00
2022-08-23T08:17:41.464Z,78432.00
2022-08-23T08:18:41.424Z,78912.00
2022-08-23T08:19:41.413Z,79424.00
2022-08-23T08:20:41.410Z,79040.00
2022-08-23T08:21:42.022Z,78784.00
2022-08-23T08:22:45.418Z,80352.00
2022-08-23T08:23:43.383Z,81152.00
2022-08-23T08:24:41.380Z,84128.00
2022-08-23T08:25:41.370Z,84576.00
2022-08-23T08:26:41.362Z,83424.00
2022-08-23T08:27:41.385Z,82304.00
2022-08-23T08:28:41.350Z,81504.00
2022-08-23T08:29:41.347Z,81088.00
2022-08-23T08:30:41.348Z,80480.00
2022-08-23T08:31:41.387Z,80096.00
2022-08-23T08:32:47.209Z,80000.00
2022-08-23T08:33:43.325Z,80160.00
2022-08-23T08:34:41.336Z,82720.00
2022-08-23T08:35:41.309Z,84000.00
2022-08-23T08:36:41.309Z,85344.00
2022-08-23T08:37:41.323Z,86240.00
2022-08-23T08:38:47.986Z,85504.00
2022-08-23T08:39:42.369Z,85568.00
2022-08-23T08:40:41.265Z,85184.00
2022-08-23T08:41:41.258Z,84448.00
2022-08-23T08:42:41.286Z,83808.00
2022-08-23T08:43:41.235Z,82592.00
2022-08-23T08:44:41.292Z,81504.00
2022-08-23T08:45:41.242Z,81792.00
2022-08-23T08:46:42.285Z,80672.00
2022-08-23T08:47:41.249Z,80288.00
2022-08-23T08:48:41.214Z,81344.00
2022-08-23T08:49:41.207Z,81120.00
2022-08-23T08:50:41.199Z,80928.00
2022-08-23T08:51:41.202Z,80576.00
2022-08-23T08:52:41.230Z,82496.00
2022-08-23T08:53:41.186Z,82720.00
2022-08-23T08:54:43.889Z,80160.00
2022-08-23T08:55:42.164Z,78336.00
2022-08-23T08:56:41.158Z,81440.00
2022-08-23T08:57:41.184Z,82624.00
2022-08-23T08:58:41.140Z,84352.00
2022-08-23T08:59:41.148Z,85600.00
2022-08-23T09:00:41.125Z,86848.00
2022-08-23T09:01:41.158Z,87296.00
2022-08-23T09:02:41.204Z,87872.00
2022-08-23T09:03:43.101Z,87008.00
2022-08-23T09:04:42.107Z,84896.00
2022-08-23T09:05:41.113Z,87136.00
2022-08-23T09:06:41.096Z,88032.00
2022-08-23T09:07:41.115Z,87488.00
2022-08-23T09:08:41.078Z,88640.00
2022-08-23T09:09:41.081Z,90944.00
2022-08-23T09:10:41.065Z,91296.00
2022-08-23T09:11:41.080Z,88992.00
2022-08-23T09:12:41.084Z,90272.00
2022-08-23T09:13:45.464Z,90144.00
2022-08-23T09:14:43.042Z,91424.00
2022-08-23T09:15:41.093Z,89536.00
2022-08-23T09:16:41.189Z,88640.00
2022-08-23T09:17:41.052Z,88256.00
2022-08-23T09:18:41.031Z,88160.00
2022-08-23T09:19:41.041Z,87936.00
2022-08-23T09:20:41.004Z,86368.00
2022-08-23T09:21:41.019Z,84608.00
2022-08-23T09:22:41.517Z,86848.00
2022-08-23T09:23:40.993Z,87808.00
2022-08-23T09:24:40.977Z,86176.00
2022-08-23T09:25:58.802Z,89056.00
2022-08-23T09:26:42.066Z,89120.00
2022-08-23T09:27:40.994Z,88992.00
2022-08-23T09:28:40.953Z,88096.00
2022-08-23T09:29:47.881Z,88192.00
2022-08-23T09:30:41.947Z,89248.00
2022-08-23T09:31:41.009Z,90144.00
2022-08-23T09:32:40.962Z,88128.00
2022-08-23T09:33:40.919Z,88544.00
2022-08-23T09:34:40.908Z,87168.00
2022-08-23T09:35:40.896Z,80896.00
2022-08-23T09:36:40.906Z,83456.00
2022-08-23T09:37:40.909Z,88224.00
2022-08-23T09:38:43.357Z,90624.00
2022-08-23T09:39:41.934Z,89664.00
2022-08-23T09:40:41.405Z,86944.00
2022-08-23T09:41:40.869Z,86784.00
2022-08-23T09:42:40.876Z,86048.00
2022-08-23T09:43:40.886Z,83648.00
2022-08-23T09:44:41.196Z,82688.00
2022-08-23T09:45:40.841Z,82720.00
2022-08-23T09:46:40.901Z,83744.00
2022-08-23T09:47:44.732Z,84416.00
2022-08-23T09:48:40.862Z,82688.00
2022-08-23T09:49:40.817Z,84064.00
2022-08-23T09:50:40.836Z,85024.00
2022-08-23T09:51:40.840Z,86560.00
2022-08-23T09:52:40.789Z,85824.00
2022-08-23T09:53:41.147Z,85216.00
2022-08-23T09:54:44.219Z,84160.00
2022-08-23T09:55:41.767Z,83744.00
2022-08-23T09:56:40.765Z,83936.00
2022-08-23T09:57:40.760Z,85120.00
2022-08-23T09:58:40.781Z,84352.00
2022-08-23T09:59:40.746Z,83680.00
2022-08-23T10:00:40.739Z,81952.00
2022-08-23T10:01:40.784Z,80288.00
2022-08-23T10:02:40.726Z,79872.00
2022-08-23T10:03:40.749Z,79968.00
2022-08-23T10:04:40.788Z,82304.00
2022-08-23T10:05:40.713Z,83168.00
2022-08-23T10:06:40.708Z,82688.00
2022-08-23T10:07:42.968Z,82240.00
2022-08-23T10:08:43.229Z,81568.00
2022-08-23T10:09:41.681Z,82272.00
2022-08-23T10:10:40.680Z,85504.00
2022-08-23T10:11:40.672Z,75232.00
2022-08-23T10:12:40.679Z,66848.00
2022-08-23T10:13:40.703Z,77248.00
2022-08-23T10:14:40.670Z,83904.00
2022-08-23T10:15:40.684Z,81120.00
2022-08-23T10:16:40.635Z,79936.00
2022-08-23T10:17:40.632Z,79968.00
2022-08-23T10:18:40.670Z,80672.00
2022-08-23T10:19:40.617Z,80992.00
2022-08-23T10:20:40.615Z,80096.00
2022-08-23T10:21:40.603Z,81472.00
2022-08-23T10:22:40.594Z,83264.00
2022-08-23T10:23:40.624Z,83168.00
2022-08-23T10:24:40.587Z,83872.00
2022-08-23T10:25:40.580Z,84960.00
2022-08-23T10:26:40.574Z,84672.00
2022-08-23T10:27:40.565Z,85120.00
2022-08-23T10:28:40.599Z,81984.00
2022-08-23T10:29:40.550Z,79456.00
2022-08-23T10:30:40.563Z,81056.00
2022-08-23T10:31:40.545Z,80896.00
2022-08-23T10:32:40.542Z,77504.00
2022-08-23T10:33:40.527Z,76352.00
2022-08-23T10:34:41.560Z,82016.00
2022-08-23T10:35:40.515Z,86304.00
2022-08-23T10:36:40.509Z,85184.00
2022-08-23T10:37:40.510Z,85056.00
2022-08-23T10:38:40.501Z,83552.00
2022-08-23T10:39:40.548Z,82720.00
2022-08-23T10:40:40.489Z,82528.00
2022-08-23T10:41:40.485Z,80992.00
2022-08-23T10:42:40.478Z,82592.00
2022-08-23T10:43:40.461Z,82272.00
2022-08-23T10:44:40.487Z,81408.00
2022-08-23T10:45:40.448Z,80480.00
2022-08-23T10:46:40.470Z,80352.00
2022-08-23T10:47:40.437Z,81568.00
2022-08-23T10:48:40.430Z,81088.00
2022-08-23T10:49:40.454Z,81568.00
2022-08-23T10:50:40.423Z,80512.00
2022-08-23T10:51:42.107Z,78656.00
2022-08-23T10:52:40.403Z,76896.00
2022-08-23T10:53:40.394Z,80160.00
2022-08-23T10:54:40.429Z,80544.00
2022-08-23T10:55:40.395Z,78848.00
2022-08-23T10:56:44.798Z,80832.00
2022-08-23T10:57:42.365Z,80384.00
2022-08-23T10:58:40.356Z,80448.00
2022-08-23T10:59:40.410Z,78848.00
2022-08-23T11:00:40.352Z,65664.00
2022-08-23T11:01:40.363Z,76928.00
2022-08-23T11:02:40.359Z,79040.00
2022-08-23T11:03:40.324Z,79776.00
2022-08-23T11:04:40.353Z,80544.00
2022-08-23T11:05:40.315Z,78240.00
2022-08-23T11:06:40.306Z,76192.00
2022-08-23T11:07:40.304Z,77120.00
2022-08-23T11:08:42.402Z,75264.00
2022-08-23T11:09:41.331Z,75968.00
2022-08-23T11:10:40.292Z,77024.00
2022-08-23T11:13:05.869Z,78304.00
2022-08-23T11:14:05.883Z,78688.00
2022-08-23T11:15:05.909Z,78304.00
2022-08-23T11:16:05.957Z,77152.00
2022-08-23T11:17:05.866Z,75872.00
2022-08-23T11:18:05.864Z,75488.00
2022-08-23T11:19:05.856Z,74752.00
2022-08-23T11:20:07.027Z,72960.00
2022-08-23T11:21:06.983Z,73824.00
2022-08-23T11:22:06.990Z,75296.00
2022-08-23T11:23:06.977Z,76640.00
2022-08-23T11:24:06.971Z,75360.00
2022-08-23T11:25:06.992Z,73088.00
2022-08-23T11:26:06.953Z,74880.00
2022-08-23T11:27:07.501Z,74112.00
2022-08-23T11:28:06.948Z,74944.00
2022-08-23T11:29:06.940Z,75968.00
2022-08-23T11:30:06.952Z,75488.00
2022-08-23T11:31:06.968Z,75872.00
2022-08-23T11:32:06.926Z,75360.00
2022-08-23T11:33:06.918Z,71616.00
2022-08-23T11:34:06.898Z,71104.00
2022-08-23T11:35:06.926Z,70176.00
2022-08-23T11:36:06.899Z,67808.00
2022-08-23T11:37:06.885Z,67584.00
2022-08-23T11:38:07.047Z,65440.00
2022-08-23T11:39:06.874Z,60352.00
2022-08-23T11:40:06.932Z,57600.00
2022-08-23T11:41:09.654Z,57472.00
2022-08-23T11:42:06.850Z,56960.00
2022-08-23T11:43:06.856Z,57632.00
2022-08-23T11:44:06.840Z,59040.00
2022-08-23T11:45:06.865Z,59808.00
2022-08-23T11:46:06.873Z,59776.00
2022-08-23T11:47:06.865Z,56480.00
2022-08-23T11:48:06.812Z,53984.00
2022-08-23T11:49:06.819Z,54944.00
2022-08-23T11:50:06.840Z,55008.00
2022-08-23T11:51:06.797Z,54176.00
2022-08-23T11:52:06.796Z,52384.00
2022-08-23T11:53:06.792Z,36448.00
2022-08-23T11:54:06.775Z,26688.00
2022-08-23T11:55:06.802Z,25984.00
2022-08-23T11:56:06.769Z,25440.00
2022-08-23T11:57:06.759Z,25248.00
2022-08-23T11:58:06.748Z,24832.00
2022-08-23T11:59:08.837Z,24928.00
2022-08-23T12:00:06.850Z,24800.00
2022-08-23T12:01:06.746Z,24640.00
2022-08-23T12:02:06.764Z,24576.00
2022-08-23T12:03:06.804Z,24480.00
2022-08-23T12:04:06.862Z,24416.00
2022-08-23T12:05:06.983Z,24320.00
2022-08-23T12:06:06.710Z,24160.00
2022-08-23T12:07:06.697Z,23968.00
2022-08-23T12:08:06.685Z,23808.00
2022-08-23T12:09:06.688Z,23648.00
2022-08-23T12:10:06.678Z,23488.00
2022-08-23T12:11:06.727Z,23424.00
2022-08-23T12:12:06.742Z,23296.00
2022-08-23T12:13:08.724Z,23200.00
2022-08-23T12:14:06.647Z,23136.00
2022-08-23T12:15:06.644Z,23104.00
2022-08-23T12:16:06.762Z,23136.00
2022-08-23T12:17:07.631Z,23104.00
2022-08-23T12:18:06.640Z,22944.00
2022-08-23T12:19:06.616Z,22912.00
2022-08-23T12:20:06.613Z,22816.00